createdAt,value
2022-10-29T00:01:05.685Z,9.40
2022-10-29T00:03:33.091Z,7.60
2022-10-29T00:06:04.388Z,8.90
2022-10-29T00:08:34.723Z,8.97
2022-10-29T00:11:12.341Z,10.43
2022-10-29T00:13:40.652Z,6.20
2022-10-29T00:16:19.098Z,8.67
2022-10-29T00:18:47.293Z,10.73
2022-10-29T00:21:18.824Z,10.67
2022-10-29T00:23:50.828Z,9.67
2022-10-29T00:26:21.398Z,10.60
2022-10-29T00:28:52.644Z,10.60
2022-10-29T00:31:24.286Z,10.67
2022-10-29T00:33:56.192Z,13.33
2022-10-29T00:36:27.774Z,10.67
2022-10-29T00:38:57.087Z,13.37
2022-10-29T00:41:29.130Z,13.90
2022-10-29T00:44:15.161Z,14.87
2022-10-29T00:46:51.875Z,14.60
2022-10-29T00:49:20.516Z,12.73
2022-10-29T00:51:49.243Z,17.27
2022-10-29T00:54:17.623Z,15.20
2022-10-29T00:56:56.484Z,17.40
2022-10-29T00:59:25.220Z,15.47
2022-10-29T01:01:55.987Z,19.10
2022-10-29T01:04:25.662Z,19.73
2022-10-29T01:06:54.001Z,13.87
2022-10-29T01:09:21.541Z,14.83
2022-10-29T01:12:28.358Z,15.70
2022-10-29T01:15:01.641Z,14.67
2022-10-29T01:17:38.156Z,20.20
2022-10-29T01:20:36.666Z,12.33
2022-10-29T01:23:25.089Z,16.50
2022-10-29T01:26:27.191Z,14.93
2022-10-29T01:29:44.879Z,14.50
2022-10-29T01:32:20.318Z,25.20
2022-10-29T01:35:00.226Z,16.73
2022-10-29T01:38:04.525Z,21.87
2022-10-29T01:41:07.069Z,15.60
2022-10-29T01:43:43.159Z,17.43
2022-10-29T01:46:30.284Z,13.13
2022-10-29T01:49:03.491Z,21.97
2022-10-29T01:51:34.411Z,11.27
2022-10-29T01:54:10.283Z,11.57
2022-10-29T01:56:38.681Z,16.20
2022-10-29T01:59:18.485Z,15.77
2022-10-29T02:02:48.226Z,15.03
2022-10-29T02:05:38.621Z,16.27
2022-10-29T02:08:34.361Z,15.30
2022-10-29T02:11:29.885Z,9.80
2022-10-29T02:13:59.296Z,14.00
2022-10-29T02:16:28.395Z,7.87
2022-10-29T02:18:58.078Z,12.93
2022-10-29T02:21:25.701Z,11.43
2022-10-29T02:23:53.395Z,13.07
2022-10-29T02:26:21.873Z,10.73
2022-10-29T02:28:49.490Z,15.43
2022-10-29T02:31:17.013Z,20.93
2022-10-29T02:33:44.470Z,10.57
2022-10-29T02:36:11.906Z,9.00
2022-10-29T02:38:39.365Z,10.17
2022-10-29T02:41:06.877Z,14.93
2022-10-29T02:43:34.403Z,12.57
2022-10-29T02:46:31.587Z,11.00
2022-10-29T02:48:59.159Z,10.33
2022-10-29T02:51:26.640Z,7.77
2022-10-29T02:53:54.114Z,9.13
2022-10-29T02:56:21.644Z,10.73
2022-10-29T02:58:49.760Z,12.40
2022-10-29T03:01:17.260Z,9.37
2022-10-29T03:03:44.795Z,7.87
2022-10-29T03:06:17.146Z,10.57
2022-10-29T03:08:45.937Z,10.73
2022-10-29T03:11:13.823Z,12.00
2022-10-29T03:13:41.415Z,11.60
2022-10-29T03:16:09.758Z,9.37
2022-10-29T03:18:37.865Z,9.43
2022-10-29T03:21:05.294Z,10.83
2022-10-29T03:23:32.752Z,19.00
2022-10-29T03:26:00.314Z,26.23
2022-10-29T03:28:28.412Z,20.90
2022-10-29T03:30:56.414Z,33.73
2022-10-29T03:33:26.675Z,23.03
2022-10-29T03:36:03.381Z,26.07
2022-10-29T03:38:35.325Z,19.67
2022-10-29T03:41:08.615Z,18.17
2022-10-29T03:43:39.612Z,20.30
2022-10-29T03:46:07.784Z,15.50
2022-10-29T03:48:35.347Z,18.53
2022-10-29T03:51:06.051Z,23.97
2022-10-29T03:53:36.028Z,48.67
2022-10-29T03:56:04.981Z,34.30
2022-10-29T03:58:32.807Z,23.30
2022-10-29T04:01:03.809Z,30.07
2022-10-29T04:03:33.497Z,27.60
2022-10-29T04:06:10.285Z,20.23
2022-10-29T04:08:38.529Z,19.23
2022-10-29T04:11:08.108Z,17.20
2022-10-29T04:13:35.552Z,17.63
2022-10-29T04:16:03.151Z,17.27
2022-10-29T04:18:30.596Z,15.77
2022-10-29T04:23:06.179Z,22.70
2022-10-29T04:29:27.243Z,22.37
2022-10-29T04:31:54.691Z,54.97
2022-10-29T04:34:22.118Z,53.10
2022-10-29T04:36:50.250Z,34.77
2022-10-29T04:39:19.643Z,21.40
2022-10-29T04:41:50.018Z,17.40
2022-10-29T04:44:17.537Z,24.33
2022-10-29T04:46:44.960Z,61.40
2022-10-29T04:49:12.456Z,98.00
2022-10-29T04:51:39.975Z,70.07
2022-10-29T04:54:07.510Z,80.00
2022-10-29T04:56:34.949Z,99.50
2022-10-29T04:59:02.431Z,97.73
2022-10-29T05:01:31.281Z,97.30
2022-10-29T05:04:00.107Z,93.77
2022-10-29T05:06:27.917Z,96.00
2022-10-29T05:08:55.346Z,66.10
2022-10-29T05:11:22.894Z,94.80
2022-10-29T05:13:50.427Z,115.23
2022-10-29T05:16:18.006Z,95.00
2022-10-29T05:18:48.187Z,59.90
2022-10-29T05:21:15.695Z,83.73
2022-10-29T05:23:43.409Z,39.67
2022-10-29T05:26:11.083Z,67.20
2022-10-29T05:28:38.662Z,106.30
2022-10-29T05:31:06.895Z,104.90
2022-10-29T05:33:37.128Z,459.43
2022-10-29T05:36:07.945Z,236.67
2022-10-29T05:38:36.676Z,100.90
2022-10-29T05:41:06.041Z,107.13
2022-10-29T05:43:34.861Z,132.83
2022-10-29T05:46:05.716Z,61.10
2022-10-29T05:48:34.885Z,148.57
2022-10-29T05:51:02.388Z,34.10
2022-10-29T05:53:29.940Z,32.07
2022-10-29T05:55:59.417Z,31.03
2022-10-29T05:58:26.893Z,33.07
2022-10-29T06:00:54.381Z,57.23
2022-10-29T06:03:24.070Z,56.50
2022-10-29T06:05:52.182Z,74.57
2022-10-29T06:08:20.362Z,40.13
2022-10-29T06:10:47.807Z,44.20
2022-10-29T06:13:22.193Z,64.10
2022-10-29T06:15:59.035Z,34.50
2022-10-29T06:18:32.360Z,34.33
2022-10-29T06:21:00.850Z,28.60
2022-10-29T06:23:29.705Z,15.07
2022-10-29T06:26:01.087Z,25.80
2022-10-29T06:28:33.748Z,17.67
2022-10-29T06:31:04.479Z,27.67
2022-10-29T06:33:32.004Z,27.90
2022-10-29T06:36:01.519Z,23.90
2022-10-29T06:38:29.179Z,33.70
2022-10-29T06:40:56.688Z,33.03
2022-10-29T06:43:24.130Z,32.37
2022-10-29T06:45:52.281Z,19.40
2022-10-29T06:48:22.398Z,19.83
2022-10-29T06:50:51.228Z,21.97
2022-10-29T06:53:19.249Z,25.23
2022-10-29T06:55:46.779Z,20.63
2022-10-29T06:58:17.752Z,28.30
2022-10-29T07:00:46.385Z,33.13
2022-10-29T07:03:20.828Z,24.07
2022-10-29T07:05:54.877Z,19.50
2022-10-29T07:08:22.453Z,24.67
2022-10-29T07:10:57.704Z,16.03
2022-10-29T07:13:25.294Z,13.40
2022-10-29T07:15:52.724Z,18.70
2022-10-29T07:18:21.481Z,22.13
2022-10-29T07:20:49.011Z,12.20
2022-10-29T07:23:16.501Z,16.37
2022-10-29T07:25:44.226Z,14.17
2022-10-29T07:28:14.228Z,15.17
2022-10-29T07:30:42.856Z,17.67
2022-10-29T07:33:10.953Z,18.27
2022-10-29T07:35:38.995Z,19.87
2022-10-29T07:38:10.883Z,15.90
2022-10-29T07:40:46.230Z,16.97
2022-10-29T07:43:14.013Z,25.23
2022-10-29T07:45:44.735Z,17.77
2022-10-29T07:48:12.384Z,10.63
2022-10-29T07:50:39.929Z,16.30
2022-10-29T07:53:08.114Z,19.33
2022-10-29T07:55:36.007Z,16.57
2022-10-29T07:58:12.361Z,17.87
2022-10-29T08:00:41.772Z,14.57
2022-10-29T08:03:12.198Z,17.33
2022-10-29T08:05:42.684Z,17.03
2022-10-29T08:08:13.595Z,14.80
2022-10-29T08:10:41.339Z,19.53
2022-10-29T08:13:08.760Z,12.43
2022-10-29T08:15:36.621Z,12.30
2022-10-29T08:18:17.012Z,8.90
2022-10-29T08:20:45.219Z,14.77
2022-10-29T08:23:14.273Z,20.37
2022-10-29T08:25:43.486Z,11.33
2022-10-29T08:28:16.286Z,12.80
2022-10-29T08:30:47.319Z,13.80
2022-10-29T08:33:14.791Z,13.77
2022-10-29T08:35:42.254Z,9.53
2022-10-29T08:38:10.012Z,9.60
2022-10-29T08:41:07.621Z,13.57
2022-10-29T08:44:08.393Z,15.70
2022-10-29T08:46:50.901Z,15.00
2022-10-29T08:49:52.280Z,17.30
2022-10-29T08:52:34.172Z,15.43
2022-10-29T08:55:27.486Z,12.73
2022-10-29T08:58:03.610Z,14.93
2022-10-29T09:00:38.628Z,10.07
2022-10-29T09:03:13.597Z,12.17
2022-10-29T09:06:09.964Z,10.20
2022-10-29T09:08:58.838Z,11.50
2022-10-29T09:11:56.168Z,12.17
2022-10-29T09:15:12.999Z,14.33
2022-10-29T09:18:07.364Z,10.13
2022-10-29T09:20:59.342Z,12.50
2022-10-29T09:23:47.717Z,10.20
2022-10-29T09:26:33.838Z,12.13
2022-10-29T09:29:32.529Z,6.87
2022-10-29T09:32:27.560Z,10.17
2022-10-29T09:35:14.906Z,10.57
2022-10-29T09:37:57.520Z,13.33
2022-10-29T09:40:39.266Z,8.47
2022-10-29T09:43:53.351Z,9.33
2022-10-29T09:46:41.324Z,4.87
2022-10-29T09:49:45.028Z,14.90
2022-10-29T09:52:26.614Z,17.73
2022-10-29T09:54:55.884Z,9.77
2022-10-29T09:57:29.533Z,17.03
2022-10-29T10:00:01.876Z,8.00
2022-10-29T10:03:02.923Z,10.03
2022-10-29T10:06:00.913Z,13.27
2022-10-29T10:08:28.733Z,18.03
2022-10-29T10:11:06.182Z,15.33
2022-10-29T10:13:38.500Z,13.20
2022-10-29T10:16:07.185Z,6.53
2022-10-29T10:21:24.488Z,6.20
2022-10-29T10:23:57.059Z,6.60
2022-10-29T10:26:44.016Z,7.40
2022-10-29T10:29:21.181Z,13.90
2022-10-29T10:32:19.437Z,5.67
2022-10-29T10:34:46.884Z,7.97
2022-10-29T10:37:21.661Z,8.53
2022-10-29T10:40:05.799Z,12.70
2022-10-29T10:42:39.510Z,8.13
2022-10-29T10:45:34.860Z,7.33
2022-10-29T10:48:02.983Z,9.50
2022-10-29T10:50:36.279Z,5.73
2022-10-29T10:53:21.530Z,3.73
2022-10-29T10:56:00.498Z,8.93
2022-10-29T10:58:35.771Z,8.30
2022-10-29T11:01:20.984Z,8.40
2022-10-29T11:04:17.942Z,5.77
2022-10-29T11:06:51.125Z,8.73
2022-10-29T11:09:32.975Z,6.63
2022-10-29T11:12:22.268Z,7.85
2022-10-29T11:15:16.832Z,8.55
2022-10-29T11:18:12.052Z,6.82
2022-10-29T11:20:47.675Z,3.88
2022-10-29T11:23:29.745Z,2.30
2022-10-29T11:26:25.669Z,4.53
2022-10-29T11:29:34.708Z,4.18
2022-10-29T11:32:28.691Z,8.07
2022-10-29T11:35:19.581Z,4.72
2022-10-29T11:38:05.224Z,3.25
2022-10-29T11:40:58.460Z,2.05
2022-10-29T11:43:26.258Z,3.08
2022-10-29T11:46:08.997Z,24.70
2022-10-29T11:49:02.488Z,4.78
2022-10-29T11:51:51.975Z,2.85
2022-10-29T11:55:07.921Z,3.45
2022-10-29T11:57:56.100Z,4.53
2022-10-29T12:00:25.092Z,3.92
2022-10-29T12:03:24.824Z,2.35
2022-10-29T12:06:14.794Z,2.70
2022-10-29T12:08:51.194Z,4.90
2022-10-29T12:11:46.597Z,4.70
2022-10-29T12:14:29.986Z,4.38
2022-10-29T12:17:11.193Z,1.80
2022-10-29T12:19:57.006Z,6.90
2022-10-29T12:22:39.711Z,7.75
2022-10-29T12:25:37.674Z,8.38
2022-10-29T12:28:30.288Z,6.13
2022-10-29T12:31:29.976Z,2.72
2022-10-29T12:34:15.143Z,4.88
2022-10-29T12:37:12.624Z,5.80
2022-10-29T12:39:58.038Z,2.40
2022-10-29T12:42:28.023Z,5.53
2022-10-29T12:46:18.600Z,2.83
2022-10-29T12:49:23.592Z,6.40
2022-10-29T12:51:58.119Z,5.30
2022-10-29T12:54:46.619Z,5.85
2022-10-29T12:57:16.653Z,7.68
2022-10-29T12:59:45.451Z,3.00
2022-10-29T13:02:38.716Z,8.73
2022-10-29T13:05:14.452Z,7.07
2022-10-29T13:08:05.174Z,3.13
2022-10-29T13:10:32.585Z,5.47
2022-10-29T13:13:31.662Z,2.10
2022-10-29T13:16:07.598Z,4.25
2022-10-29T13:19:01.932Z,4.20
2022-10-29T13:52:24.915Z,2.38
2022-10-29T13:55:12.414Z,7.72
2022-10-29T13:58:25.634Z,3.08
2022-10-29T14:00:57.177Z,9.45
2022-10-29T14:03:49.504Z,2.50
2022-10-29T14:06:29.110Z,8.02
2022-10-29T14:09:26.553Z,2.92
2022-10-29T14:12:05.456Z,3.60
2022-10-29T14:14:55.921Z,5.55
2022-10-29T14:17:43.581Z,16.27
2022-10-29T14:20:40.176Z,5.47
2022-10-29T14:23:10.645Z,4.63
2022-10-29T14:25:39.563Z,6.72
2022-10-29T14:28:26.343Z,15.75
2022-10-29T14:31:15.002Z,87.45
2022-10-29T14:33:56.739Z,11.25
2022-10-29T14:36:30.021Z,11.32
2022-10-29T14:39:28.827Z,5.90
2022-10-29T14:42:01.134Z,4.97
2022-10-29T14:44:32.950Z,13.45
2022-10-29T14:47:19.529Z,12.48
2022-10-29T14:49:50.621Z,14.45
2022-10-29T14:52:31.240Z,10.73
2022-10-29T14:55:30.195Z,6.82
2022-10-29T14:58:28.369Z,11.50
2022-10-29T15:01:05.898Z,11.13
2022-10-29T15:03:35.817Z,15.90
2022-10-29T15:06:16.294Z,18.05
2022-10-29T15:09:00.629Z,20.27
2022-10-29T15:11:39.752Z,25.73
2022-10-29T15:14:37.714Z,27.08
2022-10-29T15:17:27.388Z,31.15
2022-10-29T15:20:03.864Z,22.83
2022-10-29T15:22:40.602Z,34.08
2022-10-29T15:25:17.271Z,30.67
2022-10-29T15:27:45.247Z,34.13
2022-10-29T15:30:22.130Z,32.40
2022-10-29T15:32:50.888Z,28.48
2022-10-29T15:35:23.699Z,26.77
2022-10-29T15:37:51.761Z,23.33
2022-10-29T15:40:25.435Z,14.90
2022-10-29T15:42:55.745Z,20.98
2022-10-29T15:45:27.561Z,29.98
2022-10-29T15:48:30.054Z,36.33
2022-10-29T15:50:57.745Z,33.58
2022-10-29T15:53:28.490Z,39.28
2022-10-29T15:55:58.657Z,26.35
2022-10-29T15:58:26.218Z,28.67
2022-10-29T16:00:53.730Z,22.00
2022-10-29T16:03:27.083Z,24.13
2022-10-29T16:05:59.173Z,23.27
2022-10-29T16:08:34.980Z,28.87
2022-10-29T16:11:08.307Z,34.10
2022-10-29T16:13:40.496Z,35.37
2022-10-29T16:16:23.857Z,24.73
2022-10-29T16:18:53.525Z,33.27
2022-10-29T16:21:27.007Z,26.03
2022-10-29T16:24:03.814Z,31.50
2022-10-29T16:26:35.828Z,39.60
2022-10-29T16:29:03.374Z,34.37
2022-10-29T16:31:33.184Z,35.57
2022-10-29T16:34:05.327Z,36.83
2022-10-29T16:36:34.432Z,37.50
2022-10-29T16:39:03.141Z,32.97
2022-10-29T16:41:33.648Z,42.00
2022-10-29T16:44:01.944Z,37.83
2022-10-29T16:46:30.054Z,32.20
2022-10-29T16:48:58.817Z,29.07
2022-10-29T16:51:26.312Z,32.00
2022-10-29T16:53:54.670Z,32.27
2022-10-29T16:56:22.181Z,28.40
2022-10-29T16:58:49.954Z,27.10
2022-10-29T17:01:17.654Z,27.20
2022-10-29T17:03:45.287Z,34.07
2022-10-29T17:06:15.226Z,28.53
2022-10-29T17:08:42.740Z,27.70
2022-10-29T17:11:10.381Z,25.20
2022-10-29T17:13:38.592Z,27.80
2022-10-29T17:16:16.633Z,26.47
2022-10-29T17:18:44.085Z,25.87
2022-10-29T17:21:14.205Z,21.53
2022-10-29T17:23:42.028Z,15.00
2022-10-29T17:26:09.620Z,16.10
2022-10-29T17:28:38.595Z,14.23
2022-10-29T17:31:08.613Z,15.60
2022-10-29T17:33:37.329Z,14.20
2022-10-29T17:36:13.193Z,13.43
2022-10-29T17:38:41.095Z,12.50
2022-10-29T17:41:10.103Z,11.13
2022-10-29T17:43:40.641Z,8.87
2022-10-29T17:46:08.225Z,7.47
2022-10-29T17:48:36.788Z,12.40
2022-10-29T17:51:04.548Z,12.00
2022-10-29T17:53:32.589Z,13.93
2022-10-29T17:56:01.362Z,19.63
2022-10-29T17:58:29.272Z,13.10
2022-10-29T18:01:28.588Z,11.77
2022-10-29T18:04:06.741Z,26.30
2022-10-29T18:06:34.328Z,21.10
2022-10-29T18:09:01.908Z,19.87
2022-10-29T18:11:30.340Z,9.90
2022-10-29T18:14:03.832Z,12.97
2022-10-29T18:16:33.845Z,11.40
2022-10-29T18:19:03.208Z,9.70
2022-10-29T18:21:31.902Z,21.73
2022-10-29T18:24:02.315Z,7.63
2022-10-29T18:26:37.942Z,11.57
2022-10-29T18:29:13.176Z,5.93
2022-10-29T18:31:45.067Z,3.53
2022-10-29T18:34:17.072Z,4.33
2022-10-29T18:36:48.975Z,4.47
2022-10-29T18:39:18.118Z,2.40
2022-10-29T18:41:45.567Z,3.13
2022-10-29T18:44:15.929Z,7.67
2022-10-29T18:46:43.569Z,4.73
2022-10-29T18:49:15.515Z,7.40
2022-10-29T18:51:43.598Z,9.63
2022-10-29T18:54:14.978Z,14.33
2022-10-29T18:56:42.824Z,14.87
2022-10-29T18:59:12.836Z,11.67
2022-10-29T19:01:40.834Z,13.47
2022-10-29T19:04:13.487Z,12.50
2022-10-29T19:06:41.388Z,7.67
2022-10-29T19:09:10.805Z,10.67
2022-10-29T19:11:40.474Z,27.07
2022-10-29T19:14:14.409Z,26.87
2022-10-29T19:16:42.236Z,23.90
2022-10-29T19:19:14.406Z,24.57
2022-10-29T19:21:43.250Z,23.43
2022-10-29T19:24:15.546Z,24.30
2022-10-29T19:26:43.944Z,28.03
2022-10-29T19:29:14.001Z,22.00
2022-10-29T19:31:42.843Z,22.07
2022-10-29T19:34:10.667Z,28.30
2022-10-29T19:36:40.331Z,16.17
2022-10-29T19:39:08.717Z,23.97
2022-10-29T19:41:37.836Z,23.73
2022-10-29T19:44:07.310Z,19.27
2022-10-29T19:46:36.733Z,15.77
2022-10-29T19:49:04.280Z,20.10
2022-10-29T19:51:31.779Z,17.23
2022-10-29T19:54:02.055Z,11.37
2022-10-29T19:56:29.747Z,19.87
2022-10-29T19:59:00.627Z,18.03
2022-10-29T20:01:28.265Z,13.43
2022-10-29T20:03:57.795Z,14.73
2022-10-29T20:06:25.512Z,21.50
2022-10-29T20:08:54.436Z,15.33
2022-10-29T20:11:23.704Z,13.50
2022-10-29T20:13:51.877Z,8.67
2022-10-29T20:16:21.793Z,9.40
2022-10-29T20:18:50.524Z,12.27
2022-10-29T20:21:18.478Z,8.10
2022-10-29T20:23:47.228Z,12.87
2022-10-29T20:26:15.971Z,11.07
2022-10-29T20:28:48.487Z,8.03
2022-10-29T20:31:27.816Z,9.93
2022-10-29T20:34:00.022Z,12.27
2022-10-29T20:36:32.712Z,9.33
2022-10-29T20:39:00.835Z,10.77
2022-10-29T20:41:29.240Z,10.60
2022-10-29T20:44:01.393Z,9.63
2022-10-29T20:46:29.844Z,15.77
2022-10-29T20:48:57.465Z,10.27
2022-10-29T20:51:29.618Z,9.27
2022-10-29T20:53:59.287Z,8.30
2022-10-29T20:56:28.190Z,9.17
2022-10-29T20:58:55.867Z,15.57
2022-10-29T21:01:26.214Z,10.20
2022-10-29T21:03:53.989Z,12.87
2022-10-29T21:06:21.797Z,15.33
2022-10-29T21:08:52.127Z,13.43
2022-10-29T21:11:22.017Z,7.13
2022-10-29T21:13:50.414Z,6.40
2022-10-29T21:16:48.715Z,9.30
2022-10-29T21:19:16.162Z,8.30
2022-10-29T21:21:43.597Z,6.20
2022-10-29T21:24:11.034Z,4.67
2022-10-29T21:26:38.448Z,4.70
2022-10-29T21:29:06.036Z,8.97
2022-10-29T21:31:33.459Z,6.27
2022-10-29T21:34:01.251Z,8.97
2022-10-29T21:36:28.709Z,5.23
2022-10-29T21:38:56.408Z,5.90
2022-10-29T21:41:23.880Z,6.33
2022-10-29T21:43:51.353Z,5.33
2022-10-29T21:46:18.795Z,4.33
2022-10-29T21:48:46.341Z,25.27
2022-10-29T21:51:17.635Z,40.30
2022-10-29T21:53:45.112Z,37.33
2022-10-29T21:56:14.678Z,38.30
2022-10-29T21:58:42.608Z,59.40
2022-10-29T22:01:16.293Z,24.13
2022-10-29T22:03:47.941Z,11.87
2022-10-29T22:06:21.616Z,10.00
2022-10-29T22:08:55.590Z,10.47
2022-10-29T22:11:24.726Z,6.77
2022-10-29T22:13:53.579Z,12.00
2022-10-29T22:16:22.367Z,7.87
2022-10-29T22:18:50.127Z,8.27
2022-10-29T22:21:22.093Z,6.70
2022-10-29T22:23:59.189Z,9.10
2022-10-29T22:26:29.771Z,10.33
2022-10-29T22:28:57.732Z,15.53
2022-10-29T22:31:25.859Z,7.23
2022-10-29T22:33:53.773Z,11.63
2022-10-29T22:36:24.444Z,9.57
2022-10-29T22:38:57.323Z,8.97
2022-10-29T22:41:26.298Z,12.33
2022-10-29T22:44:01.295Z,7.50
2022-10-29T22:46:30.722Z,7.93
2022-10-29T22:48:58.577Z,10.73
2022-10-29T22:51:30.028Z,8.40
2022-10-29T22:54:00.433Z,7.20
2022-10-29T22:56:32.752Z,6.57
2022-10-29T22:59:00.931Z,9.17
2022-10-29T23:01:32.011Z,8.20
2022-10-29T23:04:03.111Z,11.67
2022-10-29T23:06:31.006Z,8.43
2022-10-29T23:08:59.045Z,12.67
2022-10-29T23:11:29.604Z,23.50
2022-10-29T23:14:02.117Z,30.47
2022-10-29T23:16:32.903Z,22.87
2022-10-29T23:19:03.858Z,10.27
2022-10-29T23:21:31.768Z,16.33
2022-10-29T23:23:59.834Z,8.83
2022-10-29T23:26:27.777Z,8.30
2022-10-29T23:28:55.587Z,5.87
2022-10-29T23:31:26.265Z,9.77
2022-10-29T23:33:56.243Z,7.00
2022-10-29T23:36:25.834Z,14.73
2022-10-29T23:38:59.780Z,6.37
2022-10-29T23:41:31.879Z,5.57
2022-10-29T23:44:02.491Z,6.10
2022-10-29T23:46:30.011Z,6.77
2022-10-29T23:48:57.425Z,6.43
2022-10-29T23:51:24.980Z,8.23
2022-10-29T23:53:56.414Z,6.43
2022-10-29T23:56:26.076Z,11.70
2022-10-29T23:58:53.547Z,5.50
